Dzhambejty, Kazakhstan
Current Conditions -  °F | °C
As of 5:30 AM on Tuesday 25 Nov 2014 (Local Time) from UARR Reporting Station
Clear Clear  
Wind Chill: -14°   Ceiling: Unl
Heat Index: -4°   Visibility: 6mi
Dew Point: -8°   Wind: 4mph
Humidity: 85%   Direction: 140°SE
Pressure: 30.89"   Gusts: NA
Location:  50.25°N, 52.57°E
Report Text: UARR 250130Z 14002MPS CAVOK M20/M22 Q1046 R04/CLRD70 NOSIG RMKQFE781/1042
Loading
Personal Weather Stations






























Interactive Weather Map New forecast layout! Learn more

10-Day Weather Forecast

Advertisements
Track Severe Weather on mobile